createdAt,value
2022-09-27T00:01:11.124Z,96367.38
2022-09-27T00:03:38.703Z,96364.41
2022-09-27T00:06:11.870Z,96372.81
2022-09-27T00:08:38.378Z,96366.84
2022-09-27T00:11:13.610Z,96366.84
2022-09-27T00:13:40.118Z,96366.84
2022-09-27T00:16:06.722Z,96370.81
2022-09-27T00:18:34.227Z,96368.53
2022-09-27T00:21:13.165Z,96368.16
2022-09-27T00:23:40.216Z,96374.91
2022-09-27T00:26:10.907Z,96379.03
2022-09-27T00:28:38.089Z,96374.56
2022-09-27T00:31:05.221Z,96372.28
2022-09-27T00:33:31.873Z,96380.19
2022-09-27T00:36:06.953Z,96374.41
2022-09-27T00:38:33.490Z,96379.88
2022-09-27T00:41:00.036Z,96373.63
2022-09-27T00:43:26.654Z,96374.59
2022-09-27T00:46:02.896Z,96366.00
2022-09-27T00:48:36.803Z,96371.75
2022-09-27T00:51:07.556Z,96365.38
2022-09-27T00:53:42.516Z,96364.06
2022-09-27T00:56:16.969Z,96364.22
2022-09-27T00:58:54.032Z,96362.75
2022-09-27T01:01:20.598Z,96364.91
2022-09-27T01:04:07.741Z,96351.38
2022-09-27T01:06:35.474Z,96368.13
2022-09-27T01:09:02.427Z,96381.19
2022-09-27T01:12:08.088Z,96382.31
2022-09-27T01:15:14.008Z,96382.28
2022-09-27T01:18:13.198Z,96395.53
2022-09-27T01:21:26.102Z,96389.47
2022-09-27T01:24:37.171Z,96388.97
2022-09-27T01:27:39.418Z,96398.56
2022-09-27T01:30:22.208Z,96398.72
2022-09-27T01:33:11.112Z,96401.41
2022-09-27T01:36:04.979Z,96401.06
2022-09-27T01:38:48.086Z,96399.47
2022-09-27T01:41:48.492Z,96403.63
2022-09-27T01:44:32.417Z,96406.75
2022-09-27T01:47:05.646Z,96398.47
2022-09-27T01:50:04.500Z,96398.81
2022-09-27T01:52:41.027Z,96399.09
2022-09-27T01:55:14.980Z,96411.16
2022-09-27T01:57:50.462Z,96409.50
2022-09-27T02:00:17.475Z,96407.06
2022-09-27T02:02:59.637Z,96406.50
2022-09-27T02:05:38.853Z,96415.56
2022-09-27T02:08:17.654Z,96412.66
2022-09-27T02:10:49.206Z,96414.28
2022-09-27T02:13:24.156Z,96418.22
2022-09-27T02:16:02.828Z,96419.22
2022-09-27T02:19:00.327Z,96421.44
2022-09-27T02:21:50.646Z,96428.78
2022-09-27T02:24:27.951Z,96428.97
2022-09-27T02:27:11.756Z,96427.38
2022-09-27T02:29:46.991Z,96428.31
2022-09-27T02:32:13.518Z,96429.81
2022-09-27T02:34:42.799Z,96425.03
2022-09-27T02:37:09.673Z,96433.09
2022-09-27T02:39:36.539Z,96437.56
2022-09-27T02:42:05.245Z,96437.75
2022-09-27T02:44:32.282Z,96435.69
2022-09-27T02:47:35.259Z,96442.09
2022-09-27T02:50:44.640Z,96440.91
2022-09-27T02:53:33.526Z,96439.16
2022-09-27T02:56:21.344Z,96438.50
2022-09-27T02:59:25.352Z,96441.25
2022-09-27T03:02:14.140Z,96442.91
2022-09-27T03:04:51.059Z,96441.13
2022-09-27T03:07:18.365Z,96436.22
2022-09-27T03:09:49.680Z,96440.34
2022-09-27T03:12:28.285Z,96438.88
2022-09-27T03:15:00.451Z,96446.69
2022-09-27T03:17:27.247Z,96444.72
2022-09-27T03:19:53.834Z,96449.13
2022-09-27T03:22:20.350Z,96455.19
2022-09-27T03:24:47.011Z,96453.56
2022-09-27T03:27:13.577Z,96456.53
2022-09-27T03:29:40.076Z,96456.22
2022-09-27T03:32:06.554Z,96458.22
2022-09-27T03:34:33.039Z,96463.66
2022-09-27T03:36:59.531Z,96465.16
2022-09-27T03:39:26.030Z,96460.66
2022-09-27T03:41:53.059Z,96463.28
2022-09-27T03:44:19.582Z,96461.03
2022-09-27T03:46:46.128Z,96465.31
2022-09-27T03:49:12.679Z,96465.66
2022-09-27T03:51:39.203Z,96464.38
2022-09-27T03:54:05.772Z,96466.72
2022-09-27T03:56:32.268Z,96469.22
2022-09-27T03:58:58.867Z,96472.53
2022-09-27T04:01:26.858Z,96477.78
2022-09-27T04:03:53.766Z,96474.78
2022-09-27T04:06:20.412Z,96479.38
2022-09-27T04:08:47.384Z,96477.25
2022-09-27T04:11:15.200Z,96477.03
2022-09-27T04:13:41.756Z,96479.94
2022-09-27T04:16:08.351Z,96481.97
2022-09-27T04:18:34.952Z,96483.78
2022-09-27T04:21:02.052Z,96494.53
2022-09-27T04:23:30.136Z,96486.44
2022-09-27T04:25:56.916Z,96494.41
2022-09-27T04:28:23.548Z,96491.09
2022-09-27T04:30:50.191Z,96486.66
2022-09-27T04:33:16.843Z,96485.69
2022-09-27T04:36:02.485Z,96491.75
2022-09-27T04:38:29.126Z,96498.25
2022-09-27T04:40:55.849Z,96493.97
2022-09-27T04:43:22.951Z,96492.44
2022-09-27T04:45:49.534Z,96502.16
2022-09-27T04:48:16.066Z,96503.50
2022-09-27T04:50:42.552Z,96500.88
2022-09-27T04:53:15.016Z,96517.47
2022-09-27T04:55:48.414Z,96510.91
2022-09-27T04:58:14.895Z,96509.44
2022-09-27T05:00:43.155Z,96512.78
2022-09-27T05:03:09.631Z,96520.28
2022-09-27T05:05:36.103Z,96517.63
2022-09-27T05:08:02.675Z,96519.00
2022-09-27T05:10:29.166Z,96532.91
2022-09-27T05:12:55.655Z,96530.19
2022-09-27T05:15:22.211Z,96531.72
2022-09-27T05:17:52.239Z,96538.31
2022-09-27T05:20:19.435Z,96543.06
2022-09-27T05:22:46.814Z,96545.16
2022-09-27T05:25:13.630Z,96548.97
2022-09-27T05:27:40.823Z,96553.66
2022-09-27T05:30:08.114Z,96556.00
2022-09-27T05:32:35.972Z,96562.53
2022-09-27T05:35:02.521Z,96560.56
2022-09-27T05:37:31.328Z,96564.25
2022-09-27T05:39:57.818Z,96563.44
2022-09-27T05:42:24.482Z,96564.53
2022-09-27T05:44:50.986Z,96563.47
2022-09-27T05:47:17.649Z,96570.34
2022-09-27T05:49:44.153Z,96577.91
2022-09-27T05:52:15.031Z,96576.25
2022-09-27T05:54:43.372Z,96577.91
2022-09-27T05:57:09.891Z,96582.50
2022-09-27T05:59:36.398Z,96583.00
2022-09-27T06:02:03.097Z,96593.78
2022-09-27T06:04:29.614Z,96592.63
2022-09-27T06:06:58.866Z,96590.91
2022-09-27T06:09:27.022Z,96596.53
2022-09-27T06:11:53.619Z,96598.13
2022-09-27T06:14:20.780Z,96606.00
2022-09-27T06:16:48.061Z,96609.69
2022-09-27T06:19:15.051Z,96605.66
2022-09-27T06:21:41.726Z,96602.13
2022-09-27T06:24:09.506Z,96617.19
2022-09-27T06:26:37.044Z,96624.56
2022-09-27T06:29:03.590Z,96622.84
2022-09-27T06:31:30.102Z,96629.44
2022-09-27T06:33:56.978Z,96621.06
2022-09-27T06:36:23.515Z,96620.44
2022-09-27T06:38:50.007Z,96624.09
2022-09-27T06:41:16.548Z,96634.22
2022-09-27T06:43:43.101Z,96636.59
2022-09-27T06:46:09.740Z,96636.97
2022-09-27T06:48:39.273Z,96637.34
2022-09-27T06:51:06.142Z,96637.22
2022-09-27T06:53:32.676Z,96641.56
2022-09-27T06:56:01.069Z,96643.66
2022-09-27T06:58:49.578Z,96650.28
2022-09-27T07:01:17.537Z,96646.94
2022-09-27T07:03:44.417Z,96654.50
2022-09-27T07:06:20.304Z,96652.00
2022-09-27T07:08:52.167Z,96661.63
2022-09-27T07:11:19.724Z,96661.88
2022-09-27T07:13:46.292Z,96674.78
2022-09-27T07:16:16.458Z,96667.06
2022-09-27T07:18:43.479Z,96679.75
2022-09-27T07:21:12.469Z,96680.38
2022-09-27T07:23:39.330Z,96684.56
2022-09-27T07:26:07.126Z,96682.56
2022-09-27T07:28:34.901Z,96689.84
2022-09-27T07:31:03.317Z,96693.66
2022-09-27T07:33:31.898Z,96691.53
2022-09-27T07:35:58.635Z,96692.78
2022-09-27T07:38:25.211Z,96692.16
2022-09-27T07:40:52.321Z,96693.06
2022-09-27T07:43:19.510Z,96695.31
2022-09-27T07:45:46.818Z,96697.59
2022-09-27T07:48:16.181Z,96699.59
2022-09-27T07:50:43.298Z,96708.34
2022-09-27T07:53:12.736Z,96700.16
2022-09-27T07:55:40.137Z,96707.19
2022-09-27T07:58:11.945Z,96706.00
2022-09-27T08:00:40.630Z,96709.38
2022-09-27T08:03:15.840Z,96709.00
2022-09-27T08:05:47.797Z,96715.03
2022-09-27T08:08:16.596Z,96720.44
2022-09-27T08:10:46.518Z,96721.63
2022-09-27T08:13:17.164Z,96724.88
2022-09-27T08:15:43.669Z,96728.91
2022-09-27T08:18:10.200Z,96733.88
2022-09-27T08:20:37.117Z,96732.03
2022-09-27T08:23:04.879Z,96734.22
2022-09-27T08:25:31.704Z,96736.00
2022-09-27T08:28:01.199Z,96740.88
2022-09-27T08:30:31.123Z,96736.34
2022-09-27T08:33:00.785Z,96746.56
2022-09-27T08:35:29.067Z,96737.09
2022-09-27T08:37:59.540Z,96747.25
2022-09-27T08:40:55.867Z,96748.31
2022-09-27T08:43:52.668Z,96756.00
2022-09-27T08:46:40.273Z,96743.88
2022-09-27T08:49:19.351Z,96754.72
2022-09-27T08:51:52.431Z,96750.44
2022-09-27T08:54:30.579Z,96753.38
2022-09-27T08:57:16.498Z,96753.00
2022-09-27T08:59:57.415Z,96754.97
2022-09-27T09:02:26.054Z,96752.69
2022-09-27T09:05:14.752Z,96753.16
2022-09-27T09:08:38.645Z,96756.00
2022-09-27T09:11:38.846Z,96755.47
2022-09-27T09:14:44.564Z,96750.63
2022-09-27T09:17:46.495Z,96756.72
2022-09-27T09:20:53.286Z,96756.41
2022-09-27T09:23:52.986Z,96744.91
2022-09-27T09:26:33.977Z,96751.31
2022-09-27T09:29:47.186Z,96744.31
2022-09-27T09:32:45.536Z,96750.94
2022-09-27T09:35:26.244Z,96746.84
2022-09-27T09:38:01.626Z,96754.53
2022-09-27T09:41:22.456Z,96754.41
2022-09-27T09:44:10.970Z,96750.13
2022-09-27T09:46:46.566Z,96746.97
2022-09-27T09:49:28.671Z,96749.88
2022-09-27T09:52:08.808Z,96745.31
2022-09-27T09:54:45.821Z,96750.13
2022-09-27T09:57:27.959Z,96739.94
2022-09-27T10:00:05.227Z,96739.88
2022-09-27T10:02:38.494Z,96741.41
2022-09-27T10:05:08.270Z,96743.16
2022-09-27T10:07:39.190Z,96741.28
2022-09-27T10:10:13.152Z,96745.41
2022-09-27T10:12:39.717Z,96741.19
2022-09-27T10:15:07.152Z,96740.69
2022-09-27T10:17:40.283Z,96741.34
2022-09-27T10:20:07.826Z,96737.41
2022-09-27T10:22:49.722Z,96735.66
2022-09-27T10:25:17.863Z,96736.72
2022-09-27T10:27:48.914Z,96740.00
2022-09-27T10:30:32.945Z,96737.75
2022-09-27T10:33:19.063Z,96735.84
2022-09-27T10:35:50.454Z,96727.22
2022-09-27T10:38:22.862Z,96728.25
2022-09-27T10:40:52.857Z,96734.66
2022-09-27T10:43:37.024Z,96730.00
2022-09-27T10:46:16.099Z,96727.69
2022-09-27T10:48:43.097Z,96726.53
2022-09-27T10:51:30.247Z,96729.69
2022-09-27T10:54:00.260Z,96724.53
2022-09-27T10:56:31.470Z,96721.63
2022-09-27T10:59:02.842Z,96714.69
2022-09-27T11:01:45.353Z,96731.16
2022-09-27T11:04:29.039Z,96729.09
2022-09-27T11:07:27.820Z,96725.66
2022-09-27T11:10:02.888Z,96712.97
2022-09-27T11:12:31.954Z,96718.34
2022-09-27T11:15:06.644Z,96717.63
2022-09-27T11:17:51.858Z,96712.94
2022-09-27T11:20:37.073Z,96713.81
2022-09-27T11:23:46.603Z,96716.19
2022-09-27T11:27:05.230Z,96716.63
2022-09-27T11:29:40.446Z,96715.28
2022-09-27T11:32:39.916Z,96712.31
2022-09-27T11:35:47.084Z,96711.75
2022-09-27T11:38:54.086Z,96712.81
2022-09-27T11:41:55.857Z,96715.69
2022-09-27T11:45:19.886Z,96712.19
2022-09-27T11:48:27.624Z,96697.50
2022-09-27T11:51:15.114Z,96692.50
2022-09-27T11:54:16.057Z,96690.09
2022-09-27T11:56:51.474Z,96682.88
2022-09-27T12:00:02.598Z,96698.38
2022-09-27T12:03:00.940Z,96692.25
2022-09-27T12:05:57.446Z,96695.09
2022-09-27T12:08:44.050Z,96688.06
2022-09-27T12:11:41.143Z,96691.63
2022-09-27T12:14:37.106Z,96694.59
2022-09-27T12:17:11.660Z,96694.16
2022-09-27T12:19:51.529Z,96697.66
2022-09-27T12:22:53.979Z,96695.28
2022-09-27T12:25:21.059Z,96694.03
2022-09-27T12:28:17.983Z,96690.00
2022-09-27T12:31:24.483Z,96682.09
2022-09-27T12:33:54.096Z,96678.50
2022-09-27T12:36:29.059Z,96681.69
2022-09-27T12:39:25.687Z,96677.22
2022-09-27T12:42:02.255Z,96678.22
2022-09-27T12:44:39.517Z,96679.25
2022-09-27T12:47:34.339Z,96672.63
2022-09-27T12:50:12.980Z,96681.72
2022-09-27T12:52:51.696Z,96671.31
2022-09-27T12:55:53.659Z,96676.78
2022-09-27T12:59:10.212Z,96676.63
2022-09-27T13:02:33.061Z,96666.06
2022-09-27T13:05:24.294Z,96671.16
2022-09-27T13:08:27.191Z,96678.63
2022-09-27T13:11:17.551Z,96677.09
2022-09-27T13:13:44.406Z,96672.97
2022-09-27T13:16:12.167Z,96679.25
2022-09-27T13:19:04.114Z,96667.06
2022-09-27T13:21:48.839Z,96662.78
2022-09-27T13:24:44.767Z,96662.25
2022-09-27T13:27:23.453Z,96659.63
2022-09-27T13:29:51.175Z,96662.59
2022-09-27T13:32:26.256Z,96661.28
2022-09-27T13:35:07.075Z,96657.13
2022-09-27T13:37:51.609Z,96660.78
2022-09-27T13:40:34.140Z,96666.38
2022-09-27T13:43:13.140Z,96654.66
2022-09-27T13:45:51.633Z,96665.03
2022-09-27T13:48:47.759Z,96666.38
2022-09-27T13:51:27.795Z,96665.34
2022-09-27T13:54:06.630Z,96671.63
2022-09-27T13:56:36.346Z,96677.22
2022-09-27T13:59:10.243Z,96700.03
2022-09-27T14:01:47.133Z,96702.78
2022-09-27T14:04:30.813Z,96696.47
2022-09-27T14:07:01.754Z,96700.00
2022-09-27T14:09:34.028Z,96696.19
2022-09-27T14:12:10.191Z,96700.38
2022-09-27T14:14:38.728Z,96698.81
2022-09-27T14:17:10.189Z,96699.97
2022-09-27T14:19:45.233Z,96706.28
2022-09-27T14:22:16.638Z,96704.66
2022-09-27T14:24:42.959Z,96705.34
2022-09-27T14:27:19.929Z,96702.97
2022-09-27T14:29:56.923Z,96711.19
2022-09-27T14:32:27.863Z,96704.19
2022-09-27T14:35:27.881Z,96712.50
2022-09-27T14:37:54.688Z,96714.63
2022-09-27T14:40:23.136Z,96708.81
2022-09-27T14:43:00.791Z,96717.16
2022-09-27T14:45:40.182Z,96717.72
2022-09-27T14:48:23.740Z,96719.22
2022-09-27T14:51:04.783Z,96722.94
2022-09-27T14:53:44.555Z,96726.06
2022-09-27T14:56:32.486Z,96730.00
2022-09-27T14:59:07.329Z,96728.25
2022-09-27T15:01:35.016Z,96733.50
2022-09-27T15:04:11.579Z,96727.56
2022-09-27T15:06:38.770Z,96725.34
2022-09-27T15:09:06.902Z,96726.88
2022-09-27T15:11:34.657Z,96727.69
2022-09-27T15:14:04.780Z,96720.44
2022-09-27T15:16:32.773Z,96724.66
2022-09-27T15:19:17.257Z,96727.53
2022-09-27T15:21:43.972Z,96735.78
2022-09-27T15:24:43.441Z,96733.78
2022-09-27T15:27:25.372Z,96733.31
2022-09-27T15:29:55.924Z,96733.50
2022-09-27T15:32:26.499Z,96738.53
2022-09-27T15:34:55.472Z,96736.78
2022-09-27T15:37:34.503Z,96733.63
2022-09-27T15:40:43.028Z,96740.09
2022-09-27T15:43:30.071Z,96736.13
2022-09-27T15:46:02.852Z,96726.88
2022-09-27T15:48:32.502Z,96734.59
2022-09-27T15:50:59.662Z,96743.50
2022-09-27T15:53:35.159Z,96741.09
2022-09-27T15:56:06.251Z,96746.97
2022-09-27T15:58:35.154Z,96758.03
2022-09-27T16:01:05.589Z,96756.69
2022-09-27T16:03:33.567Z,96759.38
2022-09-27T16:06:03.405Z,96760.72
2022-09-27T16:08:30.309Z,96762.44
2022-09-27T16:10:59.019Z,96762.38
2022-09-27T16:13:32.514Z,96758.75
2022-09-27T16:15:59.927Z,96758.25
2022-09-27T16:18:30.298Z,96757.56
2022-09-27T16:20:59.177Z,96758.56
2022-09-27T16:23:25.790Z,96758.19
2022-09-27T16:25:53.495Z,96746.63
2022-09-27T16:28:20.007Z,96755.06
2022-09-27T16:30:47.826Z,96754.19
2022-09-27T16:33:14.320Z,96754.34
2022-09-27T16:35:41.167Z,96750.88
2022-09-27T16:38:07.882Z,96745.16
2022-09-27T16:40:34.479Z,96756.75
2022-09-27T16:43:00.968Z,96758.25
2022-09-27T16:45:34.052Z,96753.44
2022-09-27T16:48:01.106Z,96758.03
2022-09-27T16:50:46.607Z,96761.00
2022-09-27T16:53:13.566Z,96766.13
2022-09-27T16:55:40.063Z,96752.81
2022-09-27T16:58:08.231Z,96747.44
2022-09-27T17:00:34.795Z,96750.25
2022-09-27T17:03:01.380Z,96750.84
2022-09-27T17:05:27.844Z,96748.66
2022-09-27T17:07:54.857Z,96751.34
2022-09-27T17:10:23.138Z,96745.78
2022-09-27T17:12:49.959Z,96753.28
2022-09-27T17:15:17.659Z,96751.72
2022-09-27T17:17:45.264Z,96753.75
2022-09-27T17:20:11.757Z,96751.50
2022-09-27T17:22:38.252Z,96747.13
2022-09-27T17:25:05.103Z,96747.78
2022-09-27T17:27:31.562Z,96740.56
2022-09-27T17:29:58.153Z,96742.34
2022-09-27T17:32:24.779Z,96739.72
2022-09-27T17:34:52.206Z,96746.13
2022-09-27T17:37:19.587Z,96737.59
2022-09-27T17:39:46.010Z,96742.72
2022-09-27T17:42:12.678Z,96739.97
2022-09-27T17:44:39.230Z,96740.03
2022-09-27T17:47:24.406Z,96737.00
2022-09-27T17:50:09.604Z,96735.25
2022-09-27T17:52:36.262Z,96741.25
2022-09-27T17:55:03.341Z,96735.88
2022-09-27T17:57:30.012Z,96739.06
2022-09-27T17:59:57.836Z,96747.09
2022-09-27T18:02:25.818Z,96748.34
2022-09-27T18:04:52.397Z,96742.13
2022-09-27T18:07:19.620Z,96741.25
2022-09-27T18:09:46.063Z,96733.69
2022-09-27T18:12:13.548Z,96739.78
2022-09-27T18:14:40.001Z,96741.16
2022-09-27T18:17:06.533Z,96744.38
2022-09-27T18:19:33.058Z,96744.91
2022-09-27T18:22:00.804Z,96738.13
2022-09-27T18:24:27.454Z,96736.50
2022-09-27T18:26:55.685Z,96735.25
2022-09-27T18:29:23.033Z,96735.91
2022-09-27T18:31:49.706Z,96740.63
2022-09-27T18:34:18.406Z,96734.25
2022-09-27T18:36:45.340Z,96733.59
2022-09-27T18:39:19.194Z,96736.75
2022-09-27T18:41:48.922Z,96730.94
2022-09-27T18:44:18.244Z,96729.69
2022-09-27T18:46:45.825Z,96721.94
2022-09-27T18:49:14.738Z,96721.97
2022-09-27T18:51:44.578Z,96725.16
2022-09-27T18:54:20.967Z,96715.63
2022-09-27T18:56:50.178Z,96714.56
2022-09-27T18:59:17.456Z,96716.91
2022-09-27T19:01:45.756Z,96714.69
2022-09-27T19:04:21.468Z,96716.88
2022-09-27T19:06:50.559Z,96714.66
2022-09-27T19:09:17.112Z,96720.75
2022-09-27T19:11:43.820Z,96723.25
2022-09-27T19:14:18.770Z,96719.81
2022-09-27T19:16:47.276Z,96719.94
2022-09-27T19:19:16.045Z,96716.38
2022-09-27T19:21:42.739Z,96718.03
2022-09-27T19:24:09.266Z,96721.75
2022-09-27T19:26:35.800Z,96722.44
2022-09-27T19:29:02.267Z,96726.16
2022-09-27T19:31:29.567Z,96724.22
2022-09-27T19:34:00.191Z,96726.00
2022-09-27T19:36:28.032Z,96719.66
2022-09-27T19:38:56.338Z,96726.72
2022-09-27T19:41:22.962Z,96727.25
2022-09-27T19:43:54.618Z,96729.88
2022-09-27T19:46:23.171Z,96727.97
2022-09-27T19:48:51.289Z,96716.91
2022-09-27T19:51:21.764Z,96721.59
2022-09-27T19:53:49.160Z,96719.34
2022-09-27T19:56:17.990Z,96710.66
2022-09-27T19:58:44.925Z,96716.44
2022-09-27T20:01:24.413Z,96714.25
2022-09-27T20:03:55.134Z,96714.94
2022-09-27T20:06:22.399Z,96707.75
2022-09-27T20:08:49.468Z,96706.66
2022-09-27T20:11:22.494Z,96704.19
2022-09-27T20:13:49.723Z,96711.91
2022-09-27T20:16:23.344Z,96712.44
2022-09-27T20:18:56.505Z,96718.22
2022-09-27T20:21:29.826Z,96705.09
2022-09-27T20:23:57.526Z,96702.91
2022-09-27T20:26:28.009Z,96702.38
2022-09-27T20:28:57.958Z,96693.13
2022-09-27T20:31:36.753Z,96689.25
2022-09-27T20:34:11.607Z,96683.44
2022-09-27T20:36:46.726Z,96682.22
2022-09-27T20:39:15.762Z,96674.63
2022-09-27T20:41:45.918Z,96677.63
2022-09-27T20:44:16.682Z,96671.06
2022-09-27T20:46:44.942Z,96658.81
2022-09-27T20:49:18.501Z,96659.41
2022-09-27T20:51:51.211Z,96653.59
2022-09-27T20:54:18.326Z,96657.88
2022-09-27T20:56:47.943Z,96656.63
2022-09-27T20:59:21.965Z,96652.47
2022-09-27T21:01:51.810Z,96646.75
2022-09-27T21:04:21.437Z,96641.59
2022-09-27T21:06:47.983Z,96638.56
2022-09-27T21:09:18.923Z,96629.47
2022-09-27T21:11:48.526Z,96626.59
2022-09-27T21:14:15.127Z,96628.78
2022-09-27T21:16:41.716Z,96620.66
2022-09-27T21:19:09.674Z,96618.97
2022-09-27T21:21:36.198Z,96615.41
2022-09-27T21:24:03.011Z,96614.88
2022-09-27T21:26:33.013Z,96606.00
2022-09-27T21:29:04.938Z,96613.06
2022-09-27T21:31:33.057Z,96606.81
2022-09-27T21:34:03.477Z,96607.81
2022-09-27T21:36:34.267Z,96611.53
2022-09-27T21:39:01.211Z,96607.91
2022-09-27T21:41:28.686Z,96603.81
2022-09-27T21:43:55.699Z,96604.47
2022-09-27T21:46:26.444Z,96599.00
2022-09-27T21:48:59.730Z,96598.84
2022-09-27T21:51:30.307Z,96594.94
2022-09-27T21:54:02.853Z,96588.16
2022-09-27T21:56:33.298Z,96582.19
2022-09-27T21:59:00.119Z,96578.94
2022-09-27T22:01:30.648Z,96572.50
2022-09-27T22:03:58.770Z,96575.41
2022-09-27T22:06:31.930Z,96571.41
2022-09-27T22:09:00.642Z,96571.69
2022-09-27T22:11:34.062Z,96571.75
2022-09-27T22:14:01.196Z,96565.78
2022-09-27T22:16:30.065Z,96566.06
2022-09-27T22:18:57.873Z,96571.16
2022-09-27T22:21:37.838Z,96573.84
2022-09-27T22:24:08.540Z,96572.63
2022-09-27T22:26:38.758Z,96572.19
2022-09-27T22:29:06.905Z,96560.69
2022-09-27T22:31:34.308Z,96564.78
2022-09-27T22:34:05.135Z,96556.34
2022-09-27T22:36:32.765Z,96555.31
2022-09-27T22:38:59.635Z,96551.00
2022-09-27T22:41:26.743Z,96551.41
2022-09-27T22:43:53.343Z,96541.25
2022-09-27T22:46:21.496Z,96535.16
2022-09-27T22:48:49.486Z,96536.97
2022-09-27T22:51:16.374Z,96529.38
2022-09-27T22:53:42.998Z,96520.59
2022-09-27T22:56:17.863Z,96513.69
2022-09-27T22:58:47.118Z,96510.22
2022-09-27T23:01:23.042Z,96509.53
2022-09-27T23:03:52.670Z,96503.31
2022-09-27T23:06:21.640Z,96502.72
2022-09-27T23:08:49.782Z,96490.72
2022-09-27T23:11:20.378Z,96494.13
2022-09-27T23:13:49.031Z,96496.53
2022-09-27T23:16:20.306Z,96485.06
2022-09-27T23:18:47.678Z,96487.16
2022-09-27T23:21:15.974Z,96476.47
2022-09-27T23:23:45.132Z,96461.25
2022-09-27T23:26:15.471Z,96454.88
2022-09-27T23:28:43.142Z,96454.28
2022-09-27T23:31:18.712Z,96459.06
2022-09-27T23:33:48.450Z,96455.81
2022-09-27T23:36:18.714Z,96458.00
2022-09-27T23:38:48.354Z,96449.16
2022-09-27T23:41:16.404Z,96450.38
2022-09-27T23:43:44.299Z,96445.81
2022-09-27T23:46:11.331Z,96443.47
2022-09-27T23:48:38.591Z,96446.00
2022-09-27T23:51:08.569Z,96445.06
2022-09-27T23:53:35.050Z,96442.56
2022-09-27T23:56:12.768Z,96446.53
2022-09-27T23:58:42.984Z,96433.56
